Terminal Aerodrome Forecast
Issued by NWS Portland, OR

Home | Current Version | Previous Version | Text Only | Print | Product List | Glossary On
Versions: 1 2 3 4 5 6 7 8 9 10 11 12 13 14 15 16 17 18 19 20 21 22 23 24 25 26 27 28 29 30 31 32 33
000
FTUS46 KPQR 021146
TAFSLE
TAF
KSLE 021146Z 0212/0312 33005KT P6SM SCT015 BKN050
     FM021400 34005KT P6SM BKN025
     FM021900 27005KT P6SM SCT040
     FM030200 34007KT P6SM BKN035
     FM030700 VRB03KT P6SM OVC025=

USA.gov is the U.S. government's official web portal to all federal, state and local government web resources and services.